Time;durP1;ratioP1;P1;durP2;ratioP2;P2;SDS_P1;SDS_P2;PMS_P1;PMS_P2;Temp;Humidity;BMP_temperature;BMP_pressure;BME280_temperature;BME280_humidity;BME280_pressure;Samples;Min_cycle;Max_cycle;Signal;HPM_P1;HPM_P2
2021/04/19 00:00:50;;;;;;;16.63;15.03;;;8.20;99.90;;;;;;4994582;28;20508;-69
2021/04/19 00:03:16;;;;;;;18.30;15.93;;;8.20;99.90;;;;;;4998351;28;20538;-69
2021/04/19 00:05:42;;;;;;;16.90;15.00;;;8.10;99.90;;;;;;4999205;28;20533;-69
2021/04/19 00:08:09;;;;;;;15.80;14.17;;;8.20;99.90;;;;;;4996638;28;20950;-68
2021/04/19 00:10:35;;;;;;;17.00;15.20;;;8.10;99.90;;;;;;4993865;28;20449;-69
2021/04/19 00:13:02;;;;;;;17.73;14.80;;;8.10;99.90;;;;;;4997723;28;20467;-69
2021/04/19 00:15:30;;;;;;;17.37;15.47;;;8.00;99.90;;;;;;4998611;28;20537;-69
2021/04/19 00:17:57;;;;;;;19.07;15.40;;;8.00;99.90;;;;;;4998095;28;20552;-68
2021/04/19 00:20:24;;;;;;;21.10;16.13;;;8.00;99.90;;;;;;4995643;28;21276;-67
2021/04/19 00:22:50;;;;;;;21.97;17.03;;;8.00;99.90;;;;;;4992801;28;20561;-69
2021/04/19 00:25:17;;;;;;;22.00;16.77;;;8.10;99.90;;;;;;4992929;28;20886;-68
2021/04/19 00:27:43;;;;;;;17.77;16.00;;;8.00;99.90;;;;;;4992805;28;20485;-68
2021/04/19 00:30:11;;;;;;;21.27;17.30;;;8.00;99.90;;;;;;4992572;28;20960;-67
2021/04/19 00:32:39;;;;;;;17.77;15.87;;;8.00;99.90;;;;;;4992236;28;20543;-67
2021/04/19 00:35:07;;;;;;;19.83;16.10;;;7.90;99.90;;;;;;4992214;28;20566;-67
2021/04/19 00:37:33;;;;;;;17.23;15.50;;;7.90;99.90;;;;;;4992233;28;20529;-67
2021/04/19 00:40:00;;;;;;;20.10;17.27;;;7.90;99.90;;;;;;4991999;28;20569;-67
2021/04/19 00:42:27;;;;;;;18.37;16.40;;;7.90;99.90;;;;;;4991458;28;21080;-67
2021/04/19 00:44:53;;;;;;;20.33;15.43;;;7.80;99.90;;;;;;4991844;28;20485;-67
2021/04/19 00:47:19;;;;;;;17.73;14.57;;;7.80;99.90;;;;;;4992143;28;20594;-67
2021/04/19 00:49:47;;;;;;;19.90;14.77;;;7.80;99.90;;;;;;4992121;28;20522;-67
2021/04/19 00:52:14;;;;;;;16.80;15.00;;;7.80;99.90;;;;;;4991886;28;20494;-68
2021/04/19 00:54:40;;;;;;;21.90;17.50;;;7.80;99.90;;;;;;4991808;28;20451;-67
2021/04/19 00:57:07;;;;;;;19.17;15.80;;;7.80;99.90;;;;;;4991627;28;20455;-68
2021/04/19 00:59:34;;;;;;;19.50;15.63;;;7.70;99.90;;;;;;4991670;28;20542;-69
2021/04/19 01:02:03;;;;;;;20.63;17.77;;;7.70;99.90;;;;;;4992151;28;20550;-68
2021/04/19 01:04:29;;;;;;;19.23;16.10;;;7.70;99.90;;;;;;4991600;28;20554;-68
2021/04/19 01:06:59;;;;;;;18.30;16.07;;;7.60;99.90;;;;;;4991864;28;20504;-69
2021/04/19 01:09:25;;;;;;;19.50;17.47;;;7.60;99.90;;;;;;4992052;28;20864;-70
2021/04/19 01:11:52;;;;;;;20.80;16.87;;;7.50;99.90;;;;;;4991434;28;20473;-68
2021/04/19 01:14:18;;;;;;;18.63;16.63;;;7.60;99.90;;;;;;4991474;28;20459;-68
2021/04/19 01:16:45;;;;;;;22.10;16.40;;;7.60;99.90;;;;;;4991571;28;20457;-68
2021/04/19 01:19:11;;;;;;;18.53;16.30;;;7.60;99.90;;;;;;4991417;28;21112;-68
2021/04/19 01:21:38;;;;;;;21.00;16.77;;;7.60;99.90;;;;;;4991398;28;20664;-69
2021/04/19 01:24:06;;;;;;;20.33;15.43;;;7.60;99.90;;;;;;4991107;28;20927;-68
2021/04/19 01:26:32;;;;;;;21.33;17.00;;;7.60;99.90;;;;;;4991296;28;20525;-69
2021/04/19 01:28:59;;;;;;;18.17;15.93;;;7.60;99.90;;;;;;4991732;28;20451;-68
2021/04/19 01:31:25;;;;;;;18.17;16.17;;;7.50;99.90;;;;;;4991702;28;20978;-68
2021/04/19 01:33:51;;;;;;;18.20;16.30;;;7.50;99.90;;;;;;4996405;28;20470;-70
2021/04/19 01:36:18;;;;;;;19.63;17.53;;;7.50;99.90;;;;;;4995967;28;20453;-69
2021/04/19 01:38:46;;;;;;;20.10;15.93;;;7.50;99.90;;;;;;4996523;28;20471;-70
2021/04/19 01:41:12;;;;;;;21.20;16.90;;;7.50;99.90;;;;;;4992630;28;20482;-70
2021/04/19 01:43:39;;;;;;;17.60;15.40;;;7.50;99.90;;;;;;4993346;28;20562;-68
2021/04/19 01:46:05;;;;;;;19.13;17.13;;;7.50;99.90;;;;;;4991635;28;20537;-69
2021/04/19 01:48:32;;;;;;;18.70;16.70;;;7.50;99.90;;;;;;4991406;28;20525;-68
2021/04/19 01:50:58;;;;;;;18.57;16.20;;;7.50;99.90;;;;;;4990906;28;20537;-68
2021/04/19 01:53:24;;;;;;;17.87;16.10;;;7.50;99.90;;;;;;4990583;28;20557;-69
2021/04/19 01:55:52;;;;;;;17.47;15.67;;;7.50;99.90;;;;;;4991004;28;20457;-70
2021/04/19 01:58:20;;;;;;;21.27;18.10;;;7.50;99.90;;;;;;4991142;28;20456;-69
2021/04/19 02:00:51;;;;;;;20.60;17.00;;;7.40;99.90;;;;;;4990934;28;20568;-68
2021/04/19 02:03:34;;;;;;;22.27;16.73;;;7.50;99.90;;;;;;4994542;28;20494;-70
2021/04/19 02:06:06;;;;;;;17.40;15.47;;;7.40;99.90;;;;;;4997222;28;20443;-69
2021/04/19 02:08:38;;;;;;;18.67;16.40;;;7.40;99.90;;;;;;4993112;28;20915;-69
2021/04/19 02:11:19;;;;;;;18.13;16.37;;;7.40;99.90;;;;;;4990871;28;20515;-68
2021/04/19 02:13:54;;;;;;;17.77;16.07;;;7.40;99.90;;;;;;4990590;28;20836;-68
2021/04/19 02:16:32;;;;;;;23.00;15.63;;;7.30;99.90;;;;;;4990672;28;20934;-67
2021/04/19 02:19:02;;;;;;;20.37;16.70;;;7.30;99.90;;;;;;4993923;28;20456;-67
2021/04/19 02:21:36;;;;;;;18.93;15.97;;;7.30;99.90;;;;;;4994747;28;20493;-67
2021/04/19 02:24:10;;;;;;;18.37;16.47;;;7.30;99.90;;;;;;4994152;28;20453;-68
2021/04/19 02:26:45;;;;;;;18.30;16.40;;;7.30;99.90;;;;;;4994456;28;20532;-68
2021/04/19 02:29:13;;;;;;;19.57;17.43;;;7.30;99.90;;;;;;4994688;28;20910;-68
2021/04/19 02:31:42;;;;;;;19.07;16.30;;;7.20;99.90;;;;;;4994209;28;20494;-69
2021/04/19 02:34:13;;;;;;;18.80;16.80;;;7.20;99.90;;;;;;4994051;28;20820;-68
2021/04/19 02:36:42;;;;;;;20.87;17.13;;;7.20;99.90;;;;;;4994416;28;20528;-68
2021/04/19 02:39:08;;;;;;;19.93;16.53;;;7.20;99.90;;;;;;4994116;28;20536;-68
2021/04/19 02:41:37;;;;;;;19.07;17.07;;;7.20;99.90;;;;;;4993597;28;21044;-68
2021/04/19 02:44:04;;;;;;;19.23;16.73;;;7.20;99.90;;;;;;4993910;28;20536;-68
2021/04/19 02:46:32;;;;;;;19.50;16.57;;;7.20;99.90;;;;;;4994101;28;20477;-68
2021/04/19 02:48:59;;;;;;;20.40;17.70;;;7.20;99.90;;;;;;4993922;28;20836;-68
2021/04/19 02:51:26;;;;;;;19.93;16.40;;;7.30;99.90;;;;;;4993594;28;21126;-67
2021/04/19 02:53:53;;;;;;;20.37;17.53;;;7.30;99.90;;;;;;4993365;28;20447;-69
2021/04/19 02:56:20;;;;;;;19.70;16.87;;;7.20;99.90;;;;;;4993866;28;20454;-69
2021/04/19 02:58:49;;;;;;;19.20;17.20;;;7.20;99.90;;;;;;4993833;28;20873;-69
2021/04/19 03:01:21;;;;;;;20.50;16.97;;;7.20;99.90;;;;;;4993560;28;20589;-68
2021/04/19 03:03:50;;;;;;;19.93;16.50;;;7.10;99.90;;;;;;4993215;28;20496;-68
2021/04/19 03:06:17;;;;;;;19.80;16.97;;;7.10;99.90;;;;;;4993718;28;20449;-67
2021/04/19 03:08:49;;;;;;;19.83;17.73;;;7.10;99.90;;;;;;4993866;28;20549;-69
2021/04/19 03:11:19;;;;;;;21.73;18.50;;;7.10;99.90;;;;;;4994117;28;20475;-68
2021/04/19 03:13:46;;;;;;;19.50;17.50;;;7.20;99.90;;;;;;4993583;28;20457;-68
2021/04/19 03:16:14;;;;;;;22.00;18.17;;;7.20;99.90;;;;;;4993723;28;20452;-68
2021/04/19 03:18:43;;;;;;;23.63;17.40;;;7.20;99.90;;;;;;4993759;28;20826;-69
2021/04/19 03:21:14;;;;;;;19.57;17.07;;;7.30;99.90;;;;;;4993354;28;20536;-69
2021/04/19 03:23:44;;;;;;;20.37;18.27;;;7.20;99.90;;;;;;4993528;28;20473;-68
2021/04/19 03:26:12;;;;;;;23.20;17.23;;;7.20;99.90;;;;;;4993620;28;20471;-68
2021/04/19 03:28:40;;;;;;;19.57;16.97;;;7.30;99.90;;;;;;4993080;28;20537;-68
2021/04/19 03:31:09;;;;;;;22.77;17.63;;;7.30;99.90;;;;;;4992800;28;21010;-67
2021/04/19 03:33:41;;;;;;;19.73;17.30;;;7.40;99.90;;;;;;4992987;28;20524;-69
2021/04/19 03:36:09;;;;;;;21.53;17.90;;;7.40;99.90;;;;;;4993625;28;20455;-69
2021/04/19 03:38:37;;;;;;;21.50;18.83;;;7.50;99.90;;;;;;4993307;28;20453;-69
2021/04/19 03:41:04;;;;;;;22.93;17.27;;;7.40;99.90;;;;;;4993016;28;20482;-70
2021/04/19 03:43:32;;;;;;;19.40;17.23;;;7.50;99.90;;;;;;4992693;28;20463;-68
2021/04/19 03:46:04;;;;;;;20.10;17.37;;;7.50;99.90;;;;;;4992866;28;20518;-68
2021/04/19 03:48:32;;;;;;;19.10;17.17;;;7.60;99.90;;;;;;4993004;28;20893;-69
2021/04/19 03:51:04;;;;;;;23.40;18.10;;;7.50;99.90;;;;;;4993050;28;20451;-70
2021/04/19 03:53:31;;;;;;;18.33;16.20;;;7.60;99.90;;;;;;4992431;28;21023;-68
2021/04/19 03:55:59;;;;;;;20.30;17.50;;;7.50;99.90;;;;;;4992941;28;20439;-68
2021/04/19 03:58:28;;;;;;;19.83;17.10;;;7.60;99.90;;;;;;4992705;28;20455;-68
2021/04/19 04:00:57;;;;;;;21.80;17.30;;;7.60;99.90;;;;;;4992349;28;20483;-68
2021/04/19 04:03:25;;;;;;;20.57;18.43;;;7.50;99.90;;;;;;4992442;28;20502;-68
2021/04/19 04:05:52;;;;;;;17.47;15.77;;;7.50;99.90;;;;;;4992863;28;20454;-68
2021/04/19 04:08:20;;;;;;;20.30;17.27;;;7.50;99.90;;;;;;4992651;28;20623;-68
2021/04/19 04:10:48;;;;;;;21.03;18.77;;;7.50;99.90;;;;;;4992640;28;20534;-68
2021/04/19 04:13:14;;;;;;;21.53;17.77;;;7.50;99.90;;;;;;4991870;28;20474;-68
2021/04/19 04:15:51;;;;;;;19.40;17.03;;;7.50;99.90;;;;;;4992581;28;20546;-67
2021/04/19 04:18:18;;;;;;;23.67;19.87;;;7.50;99.90;;;;;;4992279;28;20489;-68
2021/04/19 04:20:44;;;;;;;22.00;18.00;;;7.50;99.90;;;;;;4992297;28;20479;-68
2021/04/19 04:23:10;;;;;;;19.53;16.80;;;7.60;99.90;;;;;;4991662;28;20516;-68
2021/04/19 04:25:39;;;;;;;19.53;16.70;;;7.60;99.90;;;;;;4992115;28;20530;-68
2021/04/19 04:28:06;;;;;;;23.70;18.23;;;7.60;99.90;;;;;;4992030;28;20447;-68
2021/04/19 04:30:34;;;;;;;23.90;18.77;;;7.60;99.90;;;;;;4991947;28;20445;-68
2021/04/19 04:33:02;;;;;;;19.37;17.10;;;7.50;99.90;;;;;;4991673;28;20474;-68
2021/04/19 04:35:28;;;;;;;20.17;16.43;;;7.60;99.90;;;;;;4991934;28;20455;-68
2021/04/19 04:37:55;;;;;;;18.57;16.60;;;7.70;99.90;;;;;;4991882;28;20574;-69
2021/04/19 04:40:21;;;;;;;20.43;17.93;;;7.60;99.90;;;;;;4991400;28;20565;-68
2021/04/19 04:42:52;;;;;;;21.07;18.87;;;7.60;99.90;;;;;;4991529;28;20517;-67
2021/04/19 04:45:18;;;;;;;20.07;17.17;;;7.60;99.90;;;;;;4991600;28;20446;-70
2021/04/19 04:47:49;;;;;;;22.60;17.13;;;7.60;99.90;;;;;;4991583;28;20445;-68
2021/04/19 04:50:19;;;;;;;24.67;18.80;;;7.60;99.90;;;;;;4991377;28;20455;-70
2021/04/19 04:52:50;;;;;;;22.13;17.97;;;7.60;99.90;;;;;;4990998;28;20463;-69
2021/04/19 04:55:19;;;;;;;22.30;18.10;;;7.70;99.90;;;;;;4991436;28;20453;-68
2021/04/19 04:57:46;;;;;;;21.27;17.80;;;7.70;99.90;;;;;;4991421;28;20558;-68
2021/04/19 05:00:15;;;;;;;23.37;18.20;;;7.70;99.90;;;;;;4978833;28;20938;-69
2021/04/19 05:02:43;;;;;;;25.97;20.50;;;7.70;99.90;;;;;;4981985;28;20609;-70
2021/04/19 05:05:12;;;;;;;20.80;17.60;;;7.60;99.90;;;;;;4985295;28;20439;-69
2021/04/19 05:07:40;;;;;;;26.20;18.10;;;7.50;99.90;;;;;;4980332;28;20449;-69
2021/04/19 05:10:07;;;;;;;22.90;18.53;;;7.40;99.90;;;;;;4974036;28;20527;-68
2021/04/19 05:12:33;;;;;;;22.30;19.80;;;7.50;99.90;;;;;;4969353;28;21254;-73
2021/04/19 05:15:01;;;;;;;22.93;20.20;;;7.50;99.90;;;;;;4978821;28;20543;-70
2021/04/19 05:17:28;;;;;;;26.50;21.47;;;7.40;99.90;;;;;;5009304;28;20500;-68
2021/04/19 05:19:55;;;;;;;22.30;18.33;;;7.40;99.90;;;;;;4998084;28;20497;-68
2021/04/19 05:22:21;;;;;;;26.73;20.23;;;7.40;99.90;;;;;;4989292;28;20905;-70
2021/04/19 05:24:48;;;;;;;26.77;20.20;;;7.30;99.90;;;;;;4990962;28;20458;-67
2021/04/19 05:27:15;;;;;;;26.03;20.70;;;7.30;99.90;;;;;;4989141;28;20830;-68
2021/04/19 05:29:42;;;;;;;25.37;20.40;;;7.30;99.90;;;;;;4991029;28;20526;-68
2021/04/19 05:32:09;;;;;;;23.97;21.23;;;7.20;99.90;;;;;;4990857;28;20550;-67
2021/04/19 05:34:37;;;;;;;24.80;21.60;;;7.10;99.90;;;;;;4991110;28;20457;-69
2021/04/19 05:37:05;;;;;;;30.30;23.50;;;7.00;99.90;;;;;;4991908;28;20478;-68
2021/04/19 05:39:33;;;;;;;24.80;22.10;;;7.00;99.90;;;;;;4989247;28;20534;-68
2021/04/19 05:42:00;;;;;;;34.83;24.93;;;7.00;99.90;;;;;;4984267;28;21007;-68
2021/04/19 05:44:26;;;;;;;31.27;22.57;;;7.00;99.90;;;;;;4999384;28;20535;-70
2021/04/19 05:46:53;;;;;;;27.63;22.67;;;6.90;99.90;;;;;;4996139;28;20535;-71
2021/04/19 05:49:20;;;;;;;33.07;24.50;;;7.00;99.90;;;;;;4997416;28;20517;-69
2021/04/19 05:51:48;;;;;;;31.90;25.03;;;6.80;99.90;;;;;;5006379;28;20548;-68
2021/04/19 05:54:16;;;;;;;28.10;25.13;;;6.80;99.90;;;;;;5010873;28;20485;-69
2021/04/19 05:57:10;;;;;;;29.63;25.17;;;6.80;99.90;;;;;;5009301;28;20531;-68
2021/04/19 05:59:48;;;;;;;35.70;24.90;;;6.80;99.90;;;;;;5008444;28;20827;-69
2021/04/19 06:02:24;;;;;;;30.30;25.40;;;6.90;99.90;;;;;;5010962;28;20481;-69
2021/04/19 06:04:53;;;;;;;27.63;24.73;;;6.90;99.90;;;;;;5008567;28;20495;-68
2021/04/19 06:07:28;;;;;;;29.53;24.73;;;6.80;99.90;;;;;;5009273;28;20536;-70
2021/04/19 06:10:02;;;;;;;29.27;24.07;;;6.80;99.90;;;;;;5008347;28;21081;-70
2021/04/19 06:12:33;;;;;;;28.17;23.60;;;6.80;99.90;;;;;;5008328;28;20545;-70
2021/04/19 06:15:04;;;;;;;30.13;23.67;;;6.70;99.90;;;;;;5007941;28;20549;-71
2021/04/19 06:17:33;;;;;;;31.30;22.80;;;6.70;99.90;;;;;;5008390;28;20437;-70
2021/04/19 06:19:59;;;;;;;29.70;23.90;;;6.80;99.90;;;;;;5008370;28;21058;-72
2021/04/19 06:22:27;;;;;;;35.50;26.13;;;6.70;99.90;;;;;;4986245;28;20880;-72
2021/04/19 06:24:54;;;;;;;32.50;24.67;;;6.70;99.90;;;;;;4986606;28;20442;-69
2021/04/19 06:27:21;;;;;;;27.57;23.53;;;6.70;99.90;;;;;;4984559;28;20501;-69
2021/04/19 06:29:48;;;;;;;30.47;26.43;;;6.80;99.90;;;;;;4988670;28;20944;-70
2021/04/19 06:32:15;;;;;;;27.60;24.33;;;6.80;99.90;;;;;;4988473;28;20858;-70
2021/04/19 06:34:41;;;;;;;29.33;23.57;;;6.90;99.90;;;;;;4988409;28;20455;-70
2021/04/19 06:37:08;;;;;;;29.27;24.40;;;7.00;99.90;;;;;;4989650;28;20533;-70
2021/04/19 06:39:36;;;;;;;32.37;24.60;;;7.00;99.90;;;;;;4988645;28;21004;-69
2021/04/19 06:42:03;;;;;;;29.93;25.17;;;7.00;99.90;;;;;;4988415;28;20518;-70
2021/04/19 06:44:30;;;;;;;28.73;24.27;;;7.00;99.90;;;;;;4988316;28;20505;-70
2021/04/19 06:46:58;;;;;;;32.83;25.70;;;7.10;99.90;;;;;;4989076;28;20447;-71
2021/04/19 06:49:25;;;;;;;36.53;26.50;;;7.20;99.90;;;;;;4988430;28;20450;-68
2021/04/19 06:51:55;;;;;;;34.93;25.70;;;7.20;99.90;;;;;;4988210;28;20490;-74
2021/04/19 06:54:22;;;;;;;34.77;26.00;;;7.20;99.90;;;;;;4988849;28;20840;-69
2021/04/19 06:56:51;;;;;;;31.40;26.03;;;7.30;99.90;;;;;;4988562;28;20543;-70
2021/04/19 06:59:20;;;;;;;32.87;26.53;;;7.30;99.90;;;;;;4989274;28;20869;-70
2021/04/19 07:01:50;;;;;;;31.27;24.37;;;7.30;99.90;;;;;;4989174;28;20985;-69
2021/04/19 07:04:20;;;;;;;31.30;26.20;;;7.30;99.90;;;;;;4990558;28;20447;-70
2021/04/19 07:06:48;;;;;;;34.70;26.80;;;7.30;99.90;;;;;;4993152;28;20538;-69
2021/04/19 07:09:21;;;;;;;30.90;25.87;;;7.20;99.90;;;;;;4992985;28;20461;-71
2021/04/19 07:11:51;;;;;;;34.20;25.63;;;7.20;99.90;;;;;;4992073;28;20470;-69
2021/04/19 07:14:18;;;;;;;35.40;26.80;;;7.20;99.90;;;;;;4991856;28;20508;-68
2021/04/19 07:16:44;;;;;;;31.53;26.37;;;7.30;99.90;;;;;;4992705;28;20447;-70
2021/04/19 07:19:12;;;;;;;31.13;26.07;;;7.30;99.90;;;;;;4992127;28;20539;-69
2021/04/19 07:21:38;;;;;;;30.27;24.63;;;7.30;99.90;;;;;;4991409;28;20541;-70
2021/04/19 07:24:06;;;;;;;27.43;24.53;;;7.30;99.90;;;;;;4992130;28;21128;-70
2021/04/19 07:26:32;;;;;;;27.07;23.07;;;7.20;99.90;;;;;;4992036;28;20489;-70
2021/04/19 07:29:00;;;;;;;27.87;24.73;;;7.20;99.90;;;;;;4992407;28;20533;-70
2021/04/19 07:31:27;;;;;;;34.67;26.10;;;7.20;99.90;;;;;;4991967;28;20446;-71
2021/04/19 07:33:53;;;;;;;32.43;25.13;;;7.20;99.90;;;;;;4993215;28;20537;-71
2021/04/19 07:36:28;;;;;;;32.03;27.43;;;7.20;99.90;;;;;;4991746;28;20533;-70
2021/04/19 07:38:57;;;;;;;31.07;26.47;;;7.10;99.90;;;;;;4991492;28;20454;-69
2021/04/19 07:41:44;;;;;;;32.27;28.57;;;7.10;99.90;;;;;;4990555;28;21091;-69
2021/04/19 07:44:12;;;;;;;33.40;26.87;;;7.10;99.90;;;;;;4990967;28;20500;-71
2021/04/19 07:46:38;;;;;;;32.40;25.93;;;7.20;99.90;;;;;;4991227;28;20537;-70
2021/04/19 07:49:08;;;;;;;27.43;24.37;;;7.20;99.90;;;;;;4991250;28;20455;-69
2021/04/19 07:51:35;;;;;;;28.20;23.30;;;7.30;99.90;;;;;;4991105;28;20451;-70
2021/04/19 07:54:19;;;;;;;29.30;25.63;;;7.30;99.90;;;;;;4990564;28;21040;-70
2021/04/19 07:56:47;;;;;;;28.50;24.00;;;7.40;99.90;;;;;;4990669;28;20443;-70
2021/04/19 07:59:26;;;;;;;29.20;23.07;;;7.50;99.90;;;;;;4991096;28;20439;-71
2021/04/19 08:01:57;;;;;;;25.40;21.37;;;7.60;99.90;;;;;;4990383;28;20989;-70
2021/04/19 08:04:23;;;;;;;27.90;23.63;;;7.60;99.90;;;;;;4989776;28;20513;-70
2021/04/19 08:06:50;;;;;;;31.00;24.40;;;7.70;99.90;;;;;;4991011;28;20514;-71
2021/04/19 08:09:16;;;;;;;30.50;23.80;;;7.80;99.90;;;;;;4990772;28;20446;-71
2021/04/19 08:11:43;;;;;;;31.77;23.83;;;7.90;99.90;;;;;;4990314;28;20513;-71
2021/04/19 08:14:09;;;;;;;28.43;23.73;;;8.00;99.90;;;;;;4990355;28;20534;-71
2021/04/19 08:16:37;;;;;;;29.83;21.97;;;8.00;99.90;;;;;;4989768;28;20539;-71
2021/04/19 08:19:05;;;;;;;27.80;22.17;;;8.00;99.90;;;;;;4989887;28;20888;-71
2021/04/19 08:21:32;;;;;;;30.00;21.93;;;8.00;99.90;;;;;;4988717;28;20482;-71
2021/04/19 08:24:11;;;;;;;27.13;22.47;;;8.00;99.90;;;;;;4989564;28;20473;-70
2021/04/19 08:26:52;;;;;;;26.53;23.00;;;8.00;99.90;;;;;;4991455;28;20522;-70
2021/04/19 08:29:38;;;;;;;28.10;23.70;;;8.10;99.90;;;;;;4990897;28;20450;-70
2021/04/19 08:32:07;;;;;;;25.83;23.17;;;8.10;99.90;;;;;;4990789;28;20549;-69
2021/04/19 08:34:35;;;;;;;35.50;25.10;;;8.10;99.90;;;;;;4987456;28;20466;-71
2021/04/19 08:37:03;;;;;;;30.10;24.67;;;8.00;99.90;;;;;;4988482;28;20930;-70
2021/04/19 08:39:30;;;;;;;36.50;25.90;;;8.00;99.90;;;;;;4980218;28;21225;-70
2021/04/19 08:41:59;;;;;;;26.67;23.57;;;8.00;99.90;;;;;;4988108;28;20653;-70
2021/04/19 08:44:27;;;;;;;28.70;23.43;;;8.00;99.90;;;;;;4986929;28;20808;-71
2021/04/19 08:46:54;;;;;;;30.10;25.30;;;8.10;99.90;;;;;;4987688;28;20932;-71
2021/04/19 08:49:22;;;;;;;26.90;23.97;;;8.20;99.90;;;;;;4989220;28;20976;-70
2021/04/19 08:51:49;;;;;;;27.37;24.40;;;8.30;99.90;;;;;;4990119;28;20554;-71
2021/04/19 08:54:15;;;;;;;34.90;25.67;;;8.40;99.90;;;;;;4990715;28;20459;-70
2021/04/19 08:56:42;;;;;;;26.40;23.53;;;8.40;99.90;;;;;;4988588;28;20945;-70
2021/04/19 08:59:09;;;;;;;27.97;24.80;;;8.50;99.90;;;;;;4988476;28;20446;-71
2021/04/19 09:01:35;;;;;;;27.20;24.30;;;8.50;99.90;;;;;;4988577;28;20513;-70
2021/04/19 09:04:03;;;;;;;27.90;24.40;;;8.60;99.90;;;;;;4987693;28;20482;-69
2021/04/19 09:06:41;;;;;;;25.87;22.90;;;8.70;99.90;;;;;;4988738;28;20454;-70
2021/04/19 09:09:07;;;;;;;30.83;24.10;;;8.60;99.90;;;;;;4988917;28;20447;-70
2021/04/19 09:11:34;;;;;;;32.30;25.40;;;8.60;99.90;;;;;;4989646;28;20482;-70
2021/04/19 09:14:05;;;;;;;37.60;25.70;;;8.80;99.90;;;;;;4987991;28;20458;-70
2021/04/19 09:16:37;;;;;;;29.43;25.50;;;8.80;99.90;;;;;;4987865;28;20537;-70
2021/04/19 09:19:04;;;;;;;27.97;24.67;;;8.80;99.90;;;;;;4987778;28;20898;-70
2021/04/19 09:21:50;;;;;;;29.27;26.17;;;8.80;99.90;;;;;;4987306;28;20479;-70
2021/04/19 09:24:18;;;;;;;29.53;25.03;;;8.90;99.90;;;;;;4987379;28;20451;-70
2021/04/19 09:26:49;;;;;;;28.87;25.30;;;8.90;99.90;;;;;;4987586;28;20473;-70
2021/04/19 09:29:44;;;;;;;29.93;24.43;;;8.90;99.90;;;;;;4987385;28;20446;-70
2021/04/19 09:32:20;;;;;;;29.13;24.47;;;8.90;99.90;;;;;;4987824;28;20549;-70
2021/04/19 09:34:49;;;;;;;32.23;26.27;;;8.90;99.90;;;;;;4988232;28;20954;-70
2021/04/19 09:37:18;;;;;;;34.80;25.13;;;8.90;99.90;;;;;;4989030;28;20450;-70
2021/04/19 09:39:50;;;;;;;29.43;24.23;;;9.00;99.90;;;;;;4988482;28;20446;-71
2021/04/19 09:42:18;;;;;;;27.07;22.87;;;9.10;99.90;;;;;;4988173;28;20490;-70
2021/04/19 09:44:53;;;;;;;29.40;22.67;;;9.10;99.90;;;;;;4988117;28;20807;-70
2021/04/19 09:47:48;;;;;;;30.50;23.50;;;9.10;99.90;;;;;;4988650;28;20976;-70
2021/04/19 09:50:16;;;;;;;26.83;23.00;;;9.20;99.90;;;;;;4988321;28;20973;-70
2021/04/19 09:52:48;;;;;;;27.70;23.57;;;9.30;99.90;;;;;;4987936;28;20554;-70
2021/04/19 09:55:15;;;;;;;25.40;22.63;;;9.30;99.90;;;;;;4988736;28;20457;-70
2021/04/19 09:57:42;;;;;;;24.83;22.23;;;9.40;99.90;;;;;;4988499;28;20482;-70
2021/04/19 10:00:10;;;;;;;27.53;22.70;;;9.40;99.90;;;;;;4988139;28;20450;-70
2021/04/19 10:02:39;;;;;;;26.97;24.07;;;9.30;99.90;;;;;;4987490;28;20574;-70
2021/04/19 10:05:08;;;;;;;33.70;26.00;;;9.10;99.90;;;;;;4988540;28;20475;-69
2021/04/19 10:07:40;;;;;;;29.70;26.00;;;9.10;99.90;;;;;;4987518;28;20486;-70
2021/04/19 10:10:10;;;;;;;26.97;23.87;;;9.20;99.90;;;;;;4987961;28;20486;-70
2021/04/19 10:12:44;;;;;;;24.23;21.80;;;9.20;99.90;;;;;;4987465;28;21118;-69
2021/04/19 10:15:17;;;;;;;27.83;23.17;;;9.30;99.90;;;;;;4988107;28;20500;-70
2021/04/19 10:17:44;;;;;;;27.10;24.20;;;9.30;99.90;;;;;;4988535;28;20447;-69
2021/04/19 10:20:19;;;;;;;27.23;22.93;;;9.50;99.90;;;;;;4983795;28;20467;-69
2021/04/19 10:22:46;;;;;;;27.83;23.03;;;9.60;99.90;;;;;;4982020;28;20474;-70
2021/04/19 10:25:14;;;;;;;27.70;23.23;;;9.60;99.90;;;;;;4982363;28;20530;-70
2021/04/19 10:27:40;;;;;;;27.23;23.57;;;9.60;99.90;;;;;;4978649;28;20527;-69
2021/04/19 10:30:13;;;;;;;27.40;24.50;;;9.50;99.90;;;;;;4982624;28;21046;-69
2021/04/19 10:32:40;;;;;;;28.60;23.00;;;9.60;99.90;;;;;;4977671;28;20533;-70
2021/04/19 10:35:28;;;;;;;26.43;22.13;;;9.70;99.90;;;;;;4977499;28;21106;-70
2021/04/19 10:37:54;;;;;;;29.47;22.57;;;9.80;99.90;;;;;;4977525;28;20546;-70
2021/04/19 10:40:21;;;;;;;26.20;22.33;;;9.90;99.90;;;;;;4983358;28;20523;-69
2021/04/19 10:42:48;;;;;;;27.43;22.63;;;10.00;99.90;;;;;;4981263;28;20559;-69
2021/04/19 10:45:16;;;;;;;23.73;21.33;;;10.10;99.90;;;;;;4982685;28;20533;-69
2021/04/19 10:47:42;;;;;;;28.97;24.77;;;10.30;99.90;;;;;;4982673;28;21088;-69
2021/04/19 10:50:09;;;;;;;25.30;22.57;;;10.50;99.90;;;;;;4992183;28;20446;-69
2021/04/19 10:52:36;;;;;;;23.83;21.07;;;10.70;99.90;;;;;;4991076;28;20549;-69
2021/04/19 10:55:08;;;;;;;26.27;22.50;;;10.70;99.90;;;;;;4985328;28;20478;-69
2021/04/19 10:57:36;;;;;;;29.30;23.93;;;10.80;99.90;;;;;;4983267;28;20454;-69
2021/04/19 11:00:06;;;;;;;25.53;22.53;;;11.00;99.90;;;;;;4980745;28;20530;-69
2021/04/19 11:02:33;;;;;;;23.70;21.07;;;11.20;99.90;;;;;;4980778;28;20606;-69
2021/04/19 11:05:00;;;;;;;23.13;20.60;;;11.40;99.90;;;;;;4983395;28;20453;-69
2021/04/19 11:07:29;;;;;;;26.53;23.37;;;11.50;99.90;;;;;;4981016;28;20535;-69
2021/04/19 11:10:16;;;;;;;26.63;22.47;;;11.60;99.90;;;;;;4983149;28;20508;-69
2021/04/19 11:12:55;;;;;;;23.03;20.60;;;11.50;99.90;;;;;;4978759;28;20467;-68
2021/04/19 11:15:31;;;;;;;27.17;22.40;;;11.70;99.90;;;;;;4989233;28;20478;-69
2021/04/19 11:17:58;;;;;;;26.67;22.87;;;11.50;99.90;;;;;;4992061;28;20496;-69
2021/04/19 11:20:26;;;;;;;27.77;24.20;;;11.10;99.90;;;;;;4988350;28;20469;-69
2021/04/19 11:22:54;;;;;;;24.63;22.03;;;10.90;99.90;;;;;;4984863;28;20475;-69
2021/04/19 11:25:23;;;;;;;28.70;23.20;;;10.50;99.90;;;;;;4993973;28;20457;-69
2021/04/19 11:27:51;;;;;;;31.97;25.30;;;10.50;99.90;;;;;;5005725;28;20529;-68
2021/04/19 11:30:25;;;;;;;27.40;23.57;;;10.20;99.90;;;;;;5006940;28;20454;-69
2021/04/19 11:33:03;;;;;;;32.93;25.70;;;10.10;99.90;;;;;;5005972;28;20489;-71
2021/04/19 11:35:36;;;;;;;31.77;27.30;;;10.00;99.90;;;;;;4991168;28;20563;-67
2021/04/19 11:38:04;;;;;;;27.23;23.77;;;9.90;99.90;;;;;;4992478;28;20449;-69
2021/04/19 11:40:33;;;;;;;29.80;24.90;;;9.80;99.90;;;;;;4995463;28;20627;-70
2021/04/19 11:43:23;;;;;;;29.33;25.43;;;9.60;99.90;;;;;;4989558;28;20470;-70
2021/04/19 11:45:57;;;;;;;31.80;26.50;;;9.50;99.90;;;;;;4988782;28;21248;-69
2021/04/19 11:48:24;;;;;;;34.20;27.67;;;9.50;99.90;;;;;;4989836;28;21137;-70
2021/04/19 11:50:50;;;;;;;34.27;27.53;;;9.70;99.90;;;;;;4989356;28;20453;-69
2021/04/19 11:53:21;;;;;;;28.97;25.87;;;9.90;99.90;;;;;;4989805;28;20520;-69
2021/04/19 11:55:49;;;;;;;29.10;25.90;;;10.10;99.90;;;;;;4991062;28;20577;-69
2021/04/19 11:58:16;;;;;;;32.10;25.40;;;10.40;99.90;;;;;;4990239;28;20474;-69
2021/04/19 12:00:42;;;;;;;28.17;24.03;;;10.50;99.90;;;;;;4989753;28;20590;-68
2021/04/19 12:03:09;;;;;;;28.87;23.80;;;10.70;99.90;;;;;;4989261;28;20578;-69
2021/04/19 12:05:37;;;;;;;30.70;22.73;;;10.90;99.90;;;;;;4990293;28;20533;-69
2021/04/19 12:08:04;;;;;;;25.43;22.63;;;10.90;99.90;;;;;;5001251;28;20453;-69
2021/04/19 12:10:30;;;;;;;24.47;21.87;;;10.90;99.90;;;;;;4994509;28;20550;-70
2021/04/19 12:12:56;;;;;;;25.77;23.07;;;10.90;99.90;;;;;;4989295;28;20553;-69
2021/04/19 12:15:24;;;;;;;27.83;23.17;;;11.00;99.90;;;;;;4990070;28;20446;-70
2021/04/19 12:17:50;;;;;;;25.37;22.47;;;11.00;99.90;;;;;;4989440;28;20493;-70
2021/04/19 12:20:18;;;;;;;27.90;23.70;;;11.10;99.90;;;;;;4989895;28;20537;-69
2021/04/19 12:22:44;;;;;;;26.17;22.40;;;11.30;99.90;;;;;;4988863;28;20494;-70
2021/04/19 12:25:12;;;;;;;23.17;20.77;;;11.60;99.90;;;;;;5001645;28;20512;-73
2021/04/19 12:27:38;;;;;;;23.97;21.37;;;11.90;99.90;;;;;;5009601;28;20861;-73
2021/04/19 12:30:06;;;;;;;22.80;20.40;;;12.20;99.90;;;;;;5003700;28;20917;-71
2021/04/19 12:32:32;;;;;;;24.17;21.27;;;12.30;99.90;;;;;;4992358;28;20545;-73
2021/04/19 12:34:59;;;;;;;23.23;20.70;;;12.60;99.90;;;;;;4990060;28;20485;-73
2021/04/19 12:37:26;;;;;;;22.37;19.97;;;12.70;99.90;;;;;;4990009;28;20470;-74
2021/04/19 12:39:52;;;;;;;23.30;20.80;;;13.10;99.90;;;;;;4992880;28;20542;-67
2021/04/19 12:42:19;;;;;;;22.37;20.10;;;13.40;99.90;;;;;;4997503;28;20550;-68
2021/04/19 12:44:45;;;;;;;20.70;18.77;;;13.70;99.90;;;;;;4987465;28;20491;-68